createdAt,value
2018-08-25T00:02:24.409Z,81.37
2018-08-25T00:04:51.620Z,81.20
2018-08-25T00:07:18.765Z,79.36
2018-08-25T00:09:46.014Z,79.91
2018-08-25T00:12:13.236Z,79.46
2018-08-25T00:14:40.609Z,79.54
2018-08-25T00:17:07.872Z,78.80
2018-08-25T00:19:35.001Z,78.26
2018-08-25T00:22:02.113Z,78.26
2018-08-25T00:24:29.288Z,78.57
2018-08-25T00:26:56.472Z,79.44
2018-08-25T00:29:23.599Z,79.72
2018-08-25T00:31:52.052Z,80.62
2018-08-25T00:34:20.361Z,81.19
2018-08-25T00:36:47.489Z,82.43
2018-08-25T00:39:14.821Z,83.53
2018-08-25T00:41:42.025Z,84.03
2018-08-25T00:44:09.243Z,82.74
2018-08-25T00:46:36.484Z,82.43
2018-08-25T00:49:03.657Z,81.42
2018-08-25T00:51:30.751Z,81.70
2018-08-25T00:53:57.909Z,81.93
2018-08-25T00:56:25.100Z,81.75
2018-08-25T00:58:52.235Z,82.57
2018-08-25T01:01:19.387Z,82.61
2018-08-25T01:03:46.573Z,82.10
2018-08-25T01:06:13.821Z,81.18
2018-08-25T01:08:40.919Z,83.60
2018-08-25T01:11:08.063Z,82.65
2018-08-25T01:13:35.346Z,81.59
2018-08-25T01:16:02.550Z,81.65
2018-08-25T01:18:29.739Z,82.13
2018-08-25T01:20:56.952Z,82.26
2018-08-25T01:23:24.079Z,82.58
2018-08-25T01:25:51.237Z,83.35
2018-08-25T01:28:18.346Z,82.29
2018-08-25T01:30:45.492Z,82.43
2018-08-25T01:33:12.777Z,83.97
2018-08-25T01:35:39.915Z,84.65
2018-08-25T01:38:07.204Z,84.24
2018-08-25T01:40:34.348Z,85.12
2018-08-25T01:43:01.473Z,85.15
2018-08-25T01:45:28.724Z,85.49
2018-08-25T01:47:55.941Z,85.57
2018-08-25T01:50:23.084Z,84.48
2018-08-25T01:52:50.233Z,85.77
2018-08-25T01:55:17.392Z,84.28
2018-08-25T01:57:44.512Z,83.37
2018-08-25T02:00:11.964Z,83.15
2018-08-25T02:02:39.087Z,82.40
2018-08-25T02:05:06.393Z,82.39
2018-08-25T02:07:33.885Z,82.21
2018-08-25T02:10:01.116Z,82.06
2018-08-25T02:12:28.245Z,82.30
2018-08-25T02:14:55.438Z,83.57
2018-08-25T02:17:22.573Z,83.32
2018-08-25T02:19:49.796Z,83.45
2018-08-25T02:22:16.967Z,82.45
2018-08-25T02:24:44.116Z,80.75
2018-08-25T02:27:11.380Z,80.89
2018-08-25T02:29:38.650Z,79.74
2018-08-25T02:32:05.820Z,79.64
2018-08-25T02:34:33.397Z,79.31
2018-08-25T02:37:00.560Z,79.41
2018-08-25T02:39:27.740Z,79.27
2018-08-25T02:41:55.004Z,79.42
2018-08-25T02:44:22.092Z,79.37
2018-08-25T02:46:49.222Z,78.94
2018-08-25T02:49:16.424Z,79.72
2018-08-25T02:51:43.573Z,79.97
2018-08-25T02:54:10.740Z,79.96
2018-08-25T02:56:37.944Z,79.77
2018-08-25T02:59:05.092Z,79.47
2018-08-25T03:01:32.225Z,78.84
2018-08-25T03:03:59.360Z,79.22
2018-08-25T03:06:26.456Z,79.06
2018-08-25T03:08:53.556Z,79.43
2018-08-25T03:11:20.651Z,79.52
2018-08-25T03:13:47.844Z,78.79
2018-08-25T03:16:14.968Z,78.30
2018-08-25T03:18:42.165Z,77.82
2018-08-25T03:21:09.427Z,78.31
2018-08-25T03:23:36.595Z,78.68
2018-08-25T03:26:03.802Z,78.68
2018-08-25T03:28:31.110Z,79.48
2018-08-25T03:30:58.217Z,79.40
2018-08-25T03:33:25.392Z,79.06
2018-08-25T03:35:52.925Z,79.00
2018-08-25T03:40:46.741Z,78.98
2018-08-25T03:43:13.901Z,78.96
2018-08-25T03:45:41.028Z,79.35
2018-08-25T03:48:08.159Z,78.73
2018-08-25T03:50:35.257Z,77.97
2018-08-25T03:53:02.549Z,77.90
2018-08-25T03:55:29.974Z,79.38
2018-08-25T03:57:57.060Z,77.57
2018-08-25T04:00:24.277Z,77.16
2018-08-25T04:02:51.515Z,77.58
2018-08-25T04:05:18.640Z,77.64
2018-08-25T04:07:45.800Z,77.64
2018-08-25T04:10:12.940Z,77.93
2018-08-25T04:12:40.077Z,77.90
2018-08-25T04:15:07.716Z,77.64
2018-08-25T04:17:34.903Z,77.39
2018-08-25T04:20:02.086Z,77.44
2018-08-25T04:22:29.328Z,77.41
2018-08-25T04:24:56.492Z,77.55
2018-08-25T04:27:23.636Z,77.80
2018-08-25T04:29:50.900Z,77.67
2018-08-25T04:32:18.040Z,77.80
2018-08-25T04:34:45.141Z,78.03
2018-08-25T04:37:12.288Z,77.46
2018-08-25T04:39:39.467Z,77.44
2018-08-25T04:42:06.668Z,77.51
2018-08-25T04:44:33.793Z,77.47
2018-08-25T04:47:01.100Z,77.58
2018-08-25T04:49:28.303Z,77.59
2018-08-25T04:51:55.590Z,77.81
2018-08-25T04:54:22.828Z,77.80
2018-08-25T04:56:50.899Z,77.79
2018-08-25T04:59:18.033Z,77.56
2018-08-25T05:01:45.266Z,77.52
2018-08-25T05:04:12.333Z,77.75
2018-08-25T05:06:39.488Z,77.03
2018-08-25T05:09:08.044Z,77.23
2018-08-25T05:11:35.296Z,77.11
2018-08-25T05:14:02.496Z,77.41
2018-08-25T05:16:29.729Z,76.41
2018-08-25T05:18:57.242Z,76.62
2018-08-25T05:21:24.427Z,76.72
2018-08-25T05:23:51.591Z,76.93
2018-08-25T05:26:18.848Z,76.84
2018-08-25T05:28:45.996Z,76.48
2018-08-25T05:31:13.186Z,76.53
2018-08-25T05:33:40.289Z,76.68
2018-08-25T05:36:07.427Z,76.54
2018-08-25T05:38:34.676Z,76.55
2018-08-25T05:41:01.829Z,75.62
2018-08-25T05:43:28.981Z,75.59
2018-08-25T05:45:56.114Z,75.67
2018-08-25T05:48:23.221Z,75.20
2018-08-25T05:50:50.344Z,74.94
2018-08-25T05:53:17.520Z,75.03
2018-08-25T05:55:44.669Z,74.56
2018-08-25T05:58:12.872Z,74.43
2018-08-25T06:00:40.014Z,74.30
2018-08-25T06:03:07.143Z,74.44
2018-08-25T06:05:34.297Z,73.88
2018-08-25T06:08:01.382Z,73.87
2018-08-25T06:10:28.501Z,73.76
2018-08-25T06:12:55.700Z,73.37
2018-08-25T06:15:22.849Z,73.20
2018-08-25T06:17:50.063Z,73.05
2018-08-25T06:20:17.263Z,72.90
2018-08-25T06:22:44.381Z,72.64
2018-08-25T06:25:11.596Z,72.44
2018-08-25T06:27:38.723Z,72.36
2018-08-25T06:30:06.026Z,72.17
2018-08-25T06:32:33.284Z,71.43
2018-08-25T06:35:00.495Z,71.10
2018-08-25T06:37:27.643Z,71.19
2018-08-25T06:39:54.793Z,70.71
2018-08-25T06:42:21.968Z,70.23
2018-08-25T06:44:49.352Z,69.70
2018-08-25T06:47:16.550Z,68.79
2018-08-25T06:49:43.716Z,68.96
2018-08-25T06:52:10.911Z,68.75
2018-08-25T06:54:38.040Z,68.01
2018-08-25T06:57:05.161Z,68.51
2018-08-25T06:59:32.316Z,67.98
2018-08-25T07:01:59.465Z,67.85
2018-08-25T07:04:26.545Z,67.79
2018-08-25T07:06:53.744Z,67.75
2018-08-25T07:09:20.865Z,67.89
2018-08-25T07:11:48.048Z,67.81
2018-08-25T07:14:15.310Z,67.72
2018-08-25T07:16:42.512Z,67.44
2018-08-25T07:19:09.709Z,67.70
2018-08-25T07:21:36.869Z,67.76
2018-08-25T07:24:04.004Z,67.24
2018-08-25T07:26:31.184Z,66.54
2018-08-25T07:28:58.317Z,66.80
2018-08-25T07:31:25.454Z,65.90
2018-08-25T07:33:52.591Z,66.25
2018-08-25T07:36:19.744Z,66.16
2018-08-25T07:38:46.933Z,65.41
2018-08-25T07:41:14.076Z,65.00
2018-08-25T07:43:41.222Z,64.40
2018-08-25T07:46:08.400Z,64.61
2018-08-25T07:48:35.553Z,63.21
2018-08-25T07:51:02.698Z,63.74
2018-08-25T07:53:29.897Z,63.32
2018-08-25T07:55:57.075Z,63.58
2018-08-25T07:58:24.248Z,63.68
2018-08-25T08:00:51.412Z,63.01
2018-08-25T08:03:18.572Z,62.96
2018-08-25T08:05:45.793Z,62.67
2018-08-25T08:08:13.553Z,62.56
2018-08-25T08:10:40.724Z,61.96
2018-08-25T08:13:07.929Z,62.32
2018-08-25T08:15:35.145Z,61.10
2018-08-25T08:18:02.244Z,61.75
2018-08-25T08:20:29.518Z,61.86
2018-08-25T08:22:56.651Z,61.87
2018-08-25T08:25:23.820Z,61.33
2018-08-25T08:27:50.976Z,61.39
2018-08-25T08:30:18.077Z,59.96
2018-08-25T08:32:45.356Z,59.71
2018-08-25T08:35:12.536Z,59.66
2018-08-25T08:37:39.656Z,59.87
2018-08-25T08:40:06.947Z,59.68
2018-08-25T08:42:34.140Z,58.40
2018-08-25T08:45:01.362Z,57.40
2018-08-25T08:47:28.529Z,57.71
2018-08-25T08:49:55.760Z,58.04
2018-08-25T08:52:22.872Z,57.33
2018-08-25T08:54:50.025Z,56.44
2018-08-25T08:57:17.176Z,56.48
2018-08-25T08:59:44.432Z,55.57
2018-08-25T09:02:11.540Z,55.67
2018-08-25T09:04:38.665Z,56.04
2018-08-25T09:07:05.783Z,56.18
2018-08-25T09:09:32.857Z,55.88
2018-08-25T09:12:00.052Z,55.49
2018-08-25T09:14:27.358Z,55.73
2018-08-25T09:16:54.525Z,55.94
2018-08-25T09:19:21.785Z,55.64
2018-08-25T09:21:48.869Z,55.21
2018-08-25T09:24:16.000Z,54.87
2018-08-25T09:26:43.329Z,55.54
2018-08-25T09:29:10.477Z,55.05
2018-08-25T09:31:37.695Z,54.82
2018-08-25T09:34:04.845Z,55.60
2018-08-25T09:36:32.156Z,55.55
2018-08-25T09:38:59.151Z,54.73
2018-08-25T09:41:26.396Z,54.50
2018-08-25T09:43:53.568Z,54.65
2018-08-25T09:46:20.806Z,53.71
2018-08-25T09:48:48.085Z,53.71
2018-08-25T09:51:15.208Z,53.33
2018-08-25T09:53:43.416Z,53.09
2018-08-25T09:56:11.298Z,53.59
2018-08-25T09:58:38.407Z,53.92
2018-08-25T10:01:10.174Z,53.51
2018-08-25T10:03:37.324Z,53.96
2018-08-25T10:06:04.583Z,52.94
2018-08-25T10:08:31.733Z,52.81
2018-08-25T10:10:58.987Z,54.03
2018-08-25T10:13:27.139Z,54.58
2018-08-25T10:15:54.367Z,54.33
2018-08-25T10:18:21.553Z,54.63
2018-08-25T10:20:48.741Z,52.59
2018-08-25T10:23:15.880Z,54.20
2018-08-25T10:25:43.083Z,54.78
2018-08-25T10:28:11.088Z,52.86
2018-08-25T10:30:38.238Z,53.23
2018-08-25T10:33:05.354Z,53.40
2018-08-25T10:35:32.660Z,53.12
2018-08-25T10:37:59.819Z,52.47
2018-08-25T10:40:26.988Z,52.56
2018-08-25T10:42:54.705Z,51.74
2018-08-25T10:45:21.853Z,52.27
2018-08-25T10:47:48.964Z,52.88
2018-08-25T10:50:16.124Z,54.58
2018-08-25T10:52:43.319Z,56.39
2018-08-25T10:55:10.752Z,56.53
2018-08-25T10:57:38.001Z,58.11
2018-08-25T11:00:06.016Z,57.54
2018-08-25T11:02:33.260Z,58.34
2018-08-25T11:05:00.532Z,59.56
2018-08-25T11:07:27.653Z,63.29
2018-08-25T11:09:54.905Z,66.73
2018-08-25T11:12:22.415Z,69.44
2018-08-25T11:14:49.688Z,70.36
2018-08-25T11:17:16.901Z,69.87
2018-08-25T11:19:44.108Z,67.69
2018-08-25T11:22:11.526Z,69.34
2018-08-25T11:24:38.645Z,70.07
2018-08-25T11:27:06.047Z,68.75
2018-08-25T11:29:33.202Z,70.69
2018-08-25T11:32:00.433Z,72.17
2018-08-25T11:34:27.601Z,73.06
2018-08-25T11:36:54.868Z,72.20
2018-08-25T11:39:22.141Z,73.20
2018-08-25T11:41:49.313Z,74.58
2018-08-25T11:44:16.516Z,74.32
2018-08-25T11:46:43.704Z,76.01
2018-08-25T11:49:10.837Z,74.40
2018-08-25T11:51:38.154Z,75.36
2018-08-25T11:54:05.364Z,76.83
2018-08-25T11:56:32.609Z,75.99
2018-08-25T11:59:00.572Z,73.52
2018-08-25T12:01:27.785Z,72.99
2018-08-25T12:03:55.059Z,70.71
2018-08-25T12:06:22.336Z,69.31
2018-08-25T12:08:49.463Z,66.67
2018-08-25T12:11:16.633Z,66.50
2018-08-25T12:13:43.792Z,66.15
2018-08-25T12:16:11.061Z,63.62
2018-08-25T12:18:39.196Z,63.22
2018-08-25T12:21:06.468Z,63.91
2018-08-25T12:23:33.601Z,63.84
2018-08-25T12:26:00.780Z,63.54
2018-08-25T12:28:27.977Z,63.01
2018-08-25T12:30:55.113Z,62.56
2018-08-25T12:33:22.931Z,62.73
2018-08-25T12:35:50.148Z,62.73
2018-08-25T12:38:17.270Z,63.01
2018-08-25T12:40:44.461Z,63.59
2018-08-25T12:43:11.736Z,62.12
2018-08-25T12:45:38.780Z,63.63
2018-08-25T12:48:05.999Z,64.98
2018-08-25T12:50:33.138Z,65.28
2018-08-25T12:53:00.303Z,66.81
2018-08-25T12:55:28.132Z,67.08
2018-08-25T12:57:55.228Z,67.19
2018-08-25T13:00:22.417Z,68.00
2018-08-25T13:02:49.629Z,68.41
2018-08-25T13:05:16.751Z,68.88
2018-08-25T13:07:44.620Z,70.11
2018-08-25T13:10:11.776Z,71.38
2018-08-25T13:12:38.927Z,71.48
2018-08-25T13:15:06.806Z,72.10
2018-08-25T13:17:34.026Z,71.93
2018-08-25T13:20:01.186Z,71.40
2018-08-25T13:22:28.392Z,70.21
2018-08-25T13:24:55.555Z,70.74
2018-08-25T13:27:22.697Z,70.09
2018-08-25T13:29:49.824Z,68.51
2018-08-25T13:32:16.976Z,68.66
2018-08-25T13:34:44.124Z,67.84
2018-08-25T13:37:11.284Z,68.59
2018-08-25T13:39:38.473Z,68.95
2018-08-25T13:42:05.765Z,67.79
2018-08-25T13:44:33.063Z,66.19
2018-08-25T13:47:00.679Z,66.73
2018-08-25T13:49:27.899Z,66.60
2018-08-25T13:51:55.038Z,66.32
2018-08-25T13:54:22.148Z,66.41
2018-08-25T13:56:50.958Z,66.47
2018-08-25T13:59:18.305Z,66.16
2018-08-25T14:01:45.438Z,66.35
2018-08-25T14:04:12.622Z,66.66
2018-08-25T14:06:39.759Z,67.00
2018-08-25T14:09:07.608Z,67.43
2018-08-25T14:11:34.798Z,67.63
2018-08-25T14:14:02.086Z,67.71
2018-08-25T14:16:29.373Z,67.47
2018-08-25T14:18:56.561Z,67.69
2018-08-25T14:21:23.671Z,67.67
2018-08-25T14:23:50.796Z,67.85
2018-08-25T14:26:18.055Z,67.78
2018-08-25T14:28:45.213Z,67.64
2018-08-25T14:31:12.333Z,66.93
2018-08-25T14:33:39.571Z,67.09
2018-08-25T14:36:06.783Z,66.35
2018-08-25T14:38:33.897Z,66.64
2018-08-25T14:41:01.102Z,67.15
2018-08-25T14:43:28.284Z,66.95
2018-08-25T14:45:55.501Z,66.80
2018-08-25T14:48:22.625Z,66.70
2018-08-25T14:50:49.785Z,66.50
2018-08-25T14:53:17.016Z,66.37
2018-08-25T14:55:44.215Z,66.90
2018-08-25T14:58:12.100Z,66.72
2018-08-25T15:00:39.373Z,66.43
2018-08-25T15:03:06.909Z,66.28
2018-08-25T15:05:34.290Z,66.23
2018-08-25T15:08:01.664Z,66.26
2018-08-25T15:10:29.144Z,65.89
2018-08-25T15:12:56.833Z,65.82
2018-08-25T15:15:23.959Z,64.55
2018-08-25T15:17:51.096Z,64.31
2018-08-25T15:20:18.328Z,64.36
2018-08-25T15:22:45.754Z,64.89
2018-08-25T15:25:12.839Z,64.19
2018-08-25T15:27:40.084Z,64.90
2018-08-25T15:30:07.249Z,63.82
2018-08-25T15:32:34.404Z,63.70
2018-08-25T15:35:01.553Z,63.75
2018-08-25T15:37:28.704Z,64.74
2018-08-25T15:39:55.855Z,64.71
2018-08-25T15:42:23.024Z,64.73
2018-08-25T15:44:50.134Z,65.13
2018-08-25T15:47:17.469Z,65.14
2018-08-25T15:49:44.688Z,65.54
2018-08-25T15:52:11.859Z,65.79
2018-08-25T15:54:39.096Z,65.64
2018-08-25T15:57:06.404Z,65.34
2018-08-25T15:59:33.668Z,65.15
2018-08-25T16:02:00.916Z,65.14
2018-08-25T16:04:32.045Z,65.43
2018-08-25T16:06:59.335Z,65.29
2018-08-25T16:09:26.517Z,65.34
2018-08-25T16:11:53.818Z,65.68
2018-08-25T16:14:20.897Z,65.42
2018-08-25T16:16:48.139Z,65.31
2018-08-25T16:19:15.469Z,65.28
2018-08-25T16:21:42.676Z,65.63
2018-08-25T16:26:36.892Z,65.75
2018-08-25T16:29:04.032Z,65.22
2018-08-25T16:31:31.179Z,65.10
2018-08-25T16:33:58.455Z,65.11
2018-08-25T16:36:25.549Z,64.88
2018-08-25T16:38:52.672Z,64.89
2018-08-25T16:41:19.910Z,64.80
2018-08-25T16:43:47.060Z,64.77
2018-08-25T16:46:14.347Z,64.74
2018-08-25T16:48:41.440Z,64.96
2018-08-25T16:51:08.577Z,65.49
2018-08-25T16:53:36.104Z,65.24
2018-08-25T16:56:03.409Z,65.41
2018-08-25T16:58:30.486Z,65.45
2018-08-25T17:00:57.827Z,65.41
2018-08-25T17:03:24.976Z,65.52
2018-08-25T17:05:52.260Z,65.91
2018-08-25T17:08:19.515Z,65.52
2018-08-25T17:10:46.628Z,65.41
2018-08-25T17:13:13.840Z,65.82
2018-08-25T17:15:41.050Z,65.99
2018-08-25T17:18:08.236Z,65.85
2018-08-25T17:20:35.476Z,65.92
2018-08-25T17:23:02.619Z,66.44
2018-08-25T17:25:29.837Z,65.96
2018-08-25T17:27:57.174Z,66.20
2018-08-25T17:30:24.478Z,65.92
2018-08-25T17:32:52.271Z,66.18
2018-08-25T17:35:19.461Z,66.52
2018-08-25T17:37:46.813Z,66.69
2018-08-25T17:40:14.113Z,66.86
2018-08-25T17:42:41.438Z,67.03
2018-08-25T17:45:08.839Z,66.81
2018-08-25T17:47:36.061Z,67.03
2018-08-25T17:50:03.675Z,67.43
2018-08-25T17:52:30.918Z,67.98
2018-08-25T17:54:58.212Z,68.08
2018-08-25T17:57:25.519Z,68.76
2018-08-25T17:59:52.667Z,68.78
2018-08-25T18:02:19.904Z,69.13
2018-08-25T18:04:47.131Z,69.15
2018-08-25T18:07:14.358Z,68.86
2018-08-25T18:09:41.771Z,69.79
2018-08-25T18:12:09.022Z,69.25
2018-08-25T18:14:36.272Z,69.32
2018-08-25T18:17:03.628Z,69.41
2018-08-25T18:19:30.785Z,69.27
2018-08-25T18:21:58.001Z,69.43
2018-08-25T18:24:25.249Z,69.45
2018-08-25T18:26:52.472Z,69.66
2018-08-25T18:29:19.625Z,69.50
2018-08-25T18:31:46.943Z,70.35
2018-08-25T18:34:14.199Z,70.34
2018-08-25T18:36:41.430Z,70.17
2018-08-25T18:39:10.565Z,70.34
2018-08-25T18:41:37.856Z,70.17
2018-08-25T18:44:05.087Z,70.39
2018-08-25T18:46:32.337Z,70.08
2018-08-25T18:48:59.534Z,70.14
2018-08-25T18:51:27.032Z,70.70
2018-08-25T18:53:54.313Z,70.43
2018-08-25T18:56:21.549Z,70.06
2018-08-25T18:58:48.736Z,70.04
2018-08-25T19:01:16.153Z,70.55
2018-08-25T19:03:43.552Z,71.00
2018-08-25T19:06:10.937Z,71.09
2018-08-25T19:08:38.249Z,71.29
2018-08-25T19:11:05.801Z,71.30
2018-08-25T19:13:32.988Z,71.91
2018-08-25T19:16:00.211Z,71.59
2018-08-25T19:18:27.516Z,72.89
2018-08-25T19:20:54.844Z,74.77
2018-08-25T19:23:22.414Z,75.65
2018-08-25T19:25:49.683Z,76.40
2018-08-25T19:28:16.981Z,76.25
2018-08-25T19:30:44.097Z,75.53
2018-08-25T19:33:11.254Z,76.28
2018-08-25T19:35:39.201Z,77.42
2018-08-25T19:38:06.480Z,78.98
2018-08-25T19:40:33.630Z,79.51
2018-08-25T19:43:00.994Z,78.71
2018-08-25T19:45:28.141Z,78.28
2018-08-25T19:47:55.707Z,76.68
2018-08-25T19:50:22.905Z,77.16
2018-08-25T19:52:50.203Z,76.71
2018-08-25T19:55:17.410Z,78.58
2018-08-25T19:57:44.706Z,80.81
2018-08-25T20:00:11.935Z,82.26
2018-08-25T20:02:39.416Z,83.45
2018-08-25T20:05:06.588Z,82.31
2018-08-25T20:07:33.755Z,80.84
2018-08-25T20:10:01.002Z,81.09
2018-08-25T20:12:28.148Z,83.31
2018-08-25T20:14:55.589Z,82.08
2018-08-25T20:17:22.889Z,81.31
2018-08-25T20:19:50.097Z,80.68
2018-08-25T20:22:17.345Z,82.05
2018-08-25T20:24:44.688Z,82.07
2018-08-25T20:27:11.884Z,83.76
2018-08-25T20:29:39.515Z,84.78
2018-08-25T20:32:07.781Z,84.25
2018-08-25T20:34:35.722Z,83.84
2018-08-25T20:37:02.880Z,83.15
2018-08-25T20:39:30.029Z,81.81
2018-08-25T20:41:57.390Z,81.73
2018-08-25T20:44:24.511Z,81.28
2018-08-25T20:46:51.822Z,81.69
2018-08-25T20:49:19.134Z,83.02
2018-08-25T20:51:49.360Z,82.61
2018-08-25T20:54:16.550Z,81.67
2018-08-25T20:56:43.856Z,80.97
2018-08-25T20:59:10.978Z,80.58
2018-08-25T21:01:38.117Z,82.81
2018-08-25T21:04:05.397Z,84.22
2018-08-25T21:06:33.132Z,84.91
2018-08-25T21:09:00.263Z,85.34
2018-08-25T21:11:27.517Z,84.52
2018-08-25T21:13:54.837Z,85.07
2018-08-25T21:16:21.985Z,85.06
2018-08-25T21:18:49.589Z,83.43
2018-08-25T21:21:16.813Z,82.39
2018-08-25T21:23:43.997Z,82.25
2018-08-25T21:26:11.323Z,81.04
2018-08-25T21:28:38.510Z,79.96
2018-08-25T21:31:05.780Z,80.01
2018-08-25T21:33:33.156Z,81.28
2018-08-25T21:36:00.297Z,81.51
2018-08-25T21:38:28.287Z,81.03
2018-08-25T21:40:55.496Z,80.88
2018-08-25T21:43:22.601Z,81.55
2018-08-25T21:45:49.807Z,81.50
2018-08-25T21:48:16.971Z,81.92
2018-08-25T21:50:44.121Z,83.07
2018-08-25T21:53:11.444Z,82.59
2018-08-25T21:55:38.577Z,82.47
2018-08-25T21:58:05.734Z,82.71
2018-08-25T22:00:33.112Z,82.95
2018-08-25T22:03:00.295Z,84.60
2018-08-25T22:05:27.421Z,84.44
2018-08-25T22:07:54.627Z,83.86
2018-08-25T22:10:23.020Z,83.33
2018-08-25T22:12:50.192Z,85.70
2018-08-25T22:15:17.680Z,84.64
2018-08-25T22:17:44.810Z,85.85
2018-08-25T22:20:11.959Z,85.32
2018-08-25T22:22:39.175Z,85.62
2018-08-25T22:25:06.404Z,85.90
2018-08-25T22:27:33.660Z,86.15
2018-08-25T22:30:00.862Z,85.42
2018-08-25T22:32:28.030Z,85.17
2018-08-25T22:34:55.280Z,86.88
2018-08-25T22:37:22.399Z,85.68
2018-08-25T22:39:49.528Z,85.54
2018-08-25T22:42:16.812Z,84.84
2018-08-25T22:44:43.904Z,84.36
2018-08-25T22:47:11.016Z,85.24
2018-08-25T22:49:38.101Z,86.21
2018-08-25T22:52:05.269Z,85.86
2018-08-25T22:54:32.487Z,84.43
2018-08-25T22:56:59.628Z,84.93
2018-08-25T22:59:26.788Z,85.08
2018-08-25T23:01:54.016Z,85.20
2018-08-25T23:04:21.181Z,85.45
2018-08-25T23:06:48.305Z,85.87
2018-08-25T23:09:15.669Z,86.27
2018-08-25T23:11:42.807Z,85.98
2018-08-25T23:14:09.944Z,85.79
2018-08-25T23:16:37.057Z,86.30
2018-08-25T23:19:04.412Z,86.19
2018-08-25T23:21:31.619Z,85.41
2018-08-25T23:23:59.108Z,84.43
2018-08-25T23:26:26.305Z,84.42
2018-08-25T23:28:53.512Z,84.57
2018-08-25T23:31:20.641Z,86.08
2018-08-25T23:33:47.837Z,86.57
2018-08-25T23:36:14.994Z,85.73
2018-08-25T23:38:42.069Z,84.99
2018-08-25T23:41:09.272Z,84.44
2018-08-25T23:43:36.408Z,83.71
2018-08-25T23:46:03.588Z,82.72
2018-08-25T23:48:30.870Z,83.36
2018-08-25T23:50:57.981Z,83.10
2018-08-25T23:53:25.079Z,84.13
2018-08-25T23:55:52.320Z,84.97
2018-08-25T23:58:19.441Z,86.92
